PH-0045 weather

Public forecast

Using degrees Celsius for public forecast. Weather courtesy of forecast.io.

Closest aviation weather report (METAR) to Orient Square Heliport

Closest report is Ninoy Aquino International Airport, 5.2 nm (9.6 km) SSW. Retrieved 2020/08/11 18:00 UTC (51 minutes ago):

RPLL 111800Z AUTO 18001KT 8000 SCT083/// 27/25 Q1012

Closest aviation forecast (TAF) to Orient Square Heliport

Closest forecast is Ninoy Aquino International Airport, 5.2 nm (9.6 km) SSW. Retrieved 2020/08/11 18:21 UTC (30 minutes ago):

TAF RPLL 111700Z 1118/1224 10004KT 9999 FEW022 BKN300 TX32/1206Z TN25/1121Z TEMPO 1118/1124 08006KT FEW022 BKN100 TEMPO 1200/1206 09008KT SCT022 BKN100